sensor_id;sensor_type;location;lat;lon;timestamp;P1;durP1;ratioP1;P2;durP2;ratioP2
51612;SDS011;37694;51.748;14.326;2023-08-30T00:00:32;1.65;;;1.13;;
51612;SDS011;37694;51.748;14.326;2023-08-30T00:02:58;2.65;;;1.10;;
51612;SDS011;37694;51.748;14.326;2023-08-30T00:05:24;3.60;;;1.20;;
51612;SDS011;37694;51.748;14.326;2023-08-30T00:07:49;2.88;;;0.90;;
51612;SDS011;37694;51.748;14.326;2023-08-30T00:10:15;1.08;;;1.08;;
51612;SDS011;37694;51.748;14.326;2023-08-30T00:12:41;4.15;;;1.10;;
51612;SDS011;37694;51.748;14.326;2023-08-30T00:15:06;1.00;;;1.00;;
51612;SDS011;37694;51.748;14.326;2023-08-30T00:17:32;1.15;;;1.05;;
51612;SDS011;37694;51.748;14.326;2023-08-30T00:19:58;1.05;;;1.02;;
51612;SDS011;37694;51.748;14.326;2023-08-30T00:22:24;1.10;;;0.98;;
51612;SDS011;37694;51.748;14.326;2023-08-30T00:24:52;2.53;;;1.27;;
51612;SDS011;37694;51.748;14.326;2023-08-30T00:27:17;1.20;;;1.10;;
51612;SDS011;37694;51.748;14.326;2023-08-30T00:29:45;5.97;;;1.20;;
51612;SDS011;37694;51.748;14.326;2023-08-30T00:32:11;1.10;;;1.00;;
51612;SDS011;37694;51.748;14.326;2023-08-30T00:34:37;1.05;;;0.70;;
51612;SDS011;37694;51.748;14.326;2023-08-30T00:37:02;1.27;;;1.17;;
51612;SDS011;37694;51.748;14.326;2023-08-30T00:39:28;0.90;;;0.90;;
51612;SDS011;37694;51.748;14.326;2023-08-30T00:41:54;1.25;;;1.15;;
51612;SDS011;37694;51.748;14.326;2023-08-30T00:44:19;1.00;;;1.00;;
51612;SDS011;37694;51.748;14.326;2023-08-30T00:46:45;2.80;;;1.85;;
51612;SDS011;37694;51.748;14.326;2023-08-30T00:49:11;0.88;;;0.88;;
51612;SDS011;37694;51.748;14.326;2023-08-30T00:51:38;2.60;;;0.90;;
51612;SDS011;37694;51.748;14.326;2023-08-30T00:54:04;0.85;;;0.85;;
51612;SDS011;37694;51.748;14.326;2023-08-30T00:56:30;1.00;;;0.90;;
51612;SDS011;37694;51.748;14.326;2023-08-30T00:58:57;0.93;;;0.88;;
51612;SDS011;37694;51.748;14.326;2023-08-30T01:01:23;1.48;;;1.33;;
51612;SDS011;37694;51.748;14.326;2023-08-30T01:03:48;0.73;;;0.73;;
51612;SDS011;37694;51.748;14.326;2023-08-30T01:06:14;0.82;;;0.80;;
51612;SDS011;37694;51.748;14.326;2023-08-30T01:08:40;1.35;;;1.00;;
51612;SDS011;37694;51.748;14.326;2023-08-30T01:13:48;0.95;;;0.95;;
51612;SDS011;37694;51.748;14.326;2023-08-30T01:16:19;1.35;;;0.95;;
51612;SDS011;37694;51.748;14.326;2023-08-30T01:18:46;0.95;;;0.95;;
51612;SDS011;37694;51.748;14.326;2023-08-30T01:21:18;1.50;;;1.00;;
51612;SDS011;37694;51.748;14.326;2023-08-30T01:23:59;1.30;;;0.98;;
51612;SDS011;37694;51.748;14.326;2023-08-30T01:29:32;1.50;;;0.90;;
51612;SDS011;37694;51.748;14.326;2023-08-30T01:31:59;2.65;;;1.10;;
51612;SDS011;37694;51.748;14.326;2023-08-30T01:34:27;0.95;;;0.95;;
51612;SDS011;37694;51.748;14.326;2023-08-30T01:36:53;5.50;;;0.98;;
51612;SDS011;37694;51.748;14.326;2023-08-30T01:39:19;1.75;;;1.10;;
51612;SDS011;37694;51.748;14.326;2023-08-30T01:41:47;0.70;;;0.70;;
51612;SDS011;37694;51.748;14.326;2023-08-30T01:44:13;0.80;;;0.80;;
51612;SDS011;37694;51.748;14.326;2023-08-30T01:46:41;0.85;;;0.85;;
51612;SDS011;37694;51.748;14.326;2023-08-30T01:49:09;0.93;;;0.85;;
51612;SDS011;37694;51.748;14.326;2023-08-30T01:51:36;0.90;;;0.90;;
51612;SDS011;37694;51.748;14.326;2023-08-30T01:54:02;0.80;;;0.80;;
51612;SDS011;37694;51.748;14.326;2023-08-30T01:56:29;1.58;;;0.90;;
51612;SDS011;37694;51.748;14.326;2023-08-30T01:58:55;6.88;;;1.00;;
51612;SDS011;37694;51.748;14.326;2023-08-30T02:01:20;1.45;;;0.95;;
51612;SDS011;37694;51.748;14.326;2023-08-30T02:03:46;1.23;;;0.90;;
51612;SDS011;37694;51.748;14.326;2023-08-30T02:06:22;1.02;;;1.00;;
51612;SDS011;37694;51.748;14.326;2023-08-30T02:11:50;1.17;;;1.05;;
51612;SDS011;37694;51.748;14.326;2023-08-30T02:14:17;0.80;;;0.80;;
51612;SDS011;37694;51.748;14.326;2023-08-30T02:16:45;0.68;;;0.68;;
51612;SDS011;37694;51.748;14.326;2023-08-30T02:19:12;1.38;;;0.88;;
51612;SDS011;37694;51.748;14.326;2023-08-30T02:21:41;0.80;;;0.80;;
51612;SDS011;37694;51.748;14.326;2023-08-30T02:24:07;0.80;;;0.80;;
51612;SDS011;37694;51.748;14.326;2023-08-30T02:26:33;0.80;;;0.80;;
51612;SDS011;37694;51.748;14.326;2023-08-30T02:28:59;0.80;;;0.80;;
51612;SDS011;37694;51.748;14.326;2023-08-30T02:31:25;0.68;;;0.68;;
51612;SDS011;37694;51.748;14.326;2023-08-30T02:33:50;4.85;;;1.05;;
51612;SDS011;37694;51.748;14.326;2023-08-30T02:36:16;0.90;;;0.90;;
51612;SDS011;37694;51.748;14.326;2023-08-30T02:38:41;0.88;;;0.88;;
51612;SDS011;37694;51.748;14.326;2023-08-30T02:41:07;0.73;;;0.73;;
51612;SDS011;37694;51.748;14.326;2023-08-30T02:43:35;2.20;;;0.95;;
51612;SDS011;37694;51.748;14.326;2023-08-30T02:46:01;1.38;;;0.90;;
51612;SDS011;37694;51.748;14.326;2023-08-30T02:48:28;3.80;;;0.82;;
51612;SDS011;37694;51.748;14.326;2023-08-30T02:50:54;0.80;;;0.80;;
51612;SDS011;37694;51.748;14.326;2023-08-30T02:53:20;0.77;;;0.77;;
51612;SDS011;37694;51.748;14.326;2023-08-30T02:55:46;0.70;;;0.70;;
51612;SDS011;37694;51.748;14.326;2023-08-30T02:58:13;2.97;;;0.85;;
51612;SDS011;37694;51.748;14.326;2023-08-30T03:00:38;2.85;;;0.82;;
51612;SDS011;37694;51.748;14.326;2023-08-30T03:03:04;0.70;;;0.70;;
51612;SDS011;37694;51.748;14.326;2023-08-30T03:05:30;0.60;;;0.60;;
51612;SDS011;37694;51.748;14.326;2023-08-30T03:07:56;0.60;;;0.60;;
51612;SDS011;37694;51.748;14.326;2023-08-30T03:10:22;0.80;;;0.80;;
51612;SDS011;37694;51.748;14.326;2023-08-30T03:12:48;0.80;;;0.80;;
51612;SDS011;37694;51.748;14.326;2023-08-30T03:15:13;3.03;;;1.02;;
51612;SDS011;37694;51.748;14.326;2023-08-30T03:17:39;0.80;;;0.80;;
51612;SDS011;37694;51.748;14.326;2023-08-30T03:20:05;1.52;;;1.00;;
51612;SDS011;37694;51.748;14.326;2023-08-30T03:22:31;0.85;;;0.85;;
51612;SDS011;37694;51.748;14.326;2023-08-30T03:24:57;0.70;;;0.70;;
51612;SDS011;37694;51.748;14.326;2023-08-30T03:27:23;1.70;;;0.85;;
51612;SDS011;37694;51.748;14.326;2023-08-30T03:29:49;2.83;;;1.08;;
51612;SDS011;37694;51.748;14.326;2023-08-30T03:32:15;0.60;;;0.60;;
51612;SDS011;37694;51.748;14.326;2023-08-30T03:34:46;6.03;;;0.90;;
51612;SDS011;37694;51.748;14.326;2023-08-30T03:37:15;1.85;;;0.60;;
51612;SDS011;37694;51.748;14.326;2023-08-30T03:39:41;1.13;;;0.73;;
51612;SDS011;37694;51.748;14.326;2023-08-30T03:42:06;0.73;;;0.70;;
51612;SDS011;37694;51.748;14.326;2023-08-30T03:44:32;0.80;;;0.80;;
51612;SDS011;37694;51.748;14.326;2023-08-30T03:46:58;0.80;;;0.80;;
51612;SDS011;37694;51.748;14.326;2023-08-30T03:49:24;0.93;;;0.70;;
51612;SDS011;37694;51.748;14.326;2023-08-30T03:51:49;0.73;;;0.73;;
51612;SDS011;37694;51.748;14.326;2023-08-30T03:54:15;0.70;;;0.70;;
51612;SDS011;37694;51.748;14.326;2023-08-30T03:56:43;0.82;;;0.82;;
51612;SDS011;37694;51.748;14.326;2023-08-30T03:59:10;1.15;;;0.80;;
51612;SDS011;37694;51.748;14.326;2023-08-30T04:01:36;0.70;;;0.70;;
51612;SDS011;37694;51.748;14.326;2023-08-30T04:04:02;0.60;;;0.60;;
51612;SDS011;37694;51.748;14.326;2023-08-30T04:06:28;1.20;;;0.60;;
51612;SDS011;37694;51.748;14.326;2023-08-30T04:08:53;1.05;;;0.63;;
51612;SDS011;37694;51.748;14.326;2023-08-30T04:11:19;0.70;;;0.70;;
51612;SDS011;37694;51.748;14.326;2023-08-30T04:13:45;0.82;;;0.80;;
51612;SDS011;37694;51.748;14.326;2023-08-30T04:16:11;1.20;;;0.90;;
51612;SDS011;37694;51.748;14.326;2023-08-30T04:18:36;6.28;;;0.70;;
51612;SDS011;37694;51.748;14.326;2023-08-30T04:21:02;0.60;;;0.60;;
51612;SDS011;37694;51.748;14.326;2023-08-30T04:23:28;1.80;;;0.80;;
51612;SDS011;37694;51.748;14.326;2023-08-30T04:25:54;0.73;;;0.70;;
51612;SDS011;37694;51.748;14.326;2023-08-30T04:28:20;0.65;;;0.65;;
51612;SDS011;37694;51.748;14.326;2023-08-30T04:30:46;0.60;;;0.60;;
51612;SDS011;37694;51.748;14.326;2023-08-30T04:33:12;0.75;;;0.70;;
51612;SDS011;37694;51.748;14.326;2023-08-30T04:35:37;0.75;;;0.75;;
51612;SDS011;37694;51.748;14.326;2023-08-30T04:38:04;0.70;;;0.70;;
51612;SDS011;37694;51.748;14.326;2023-08-30T04:40:30;0.50;;;0.50;;
51612;SDS011;37694;51.748;14.326;2023-08-30T04:42:57;0.70;;;0.70;;
51612;SDS011;37694;51.748;14.326;2023-08-30T04:45:23;0.82;;;0.82;;
51612;SDS011;37694;51.748;14.326;2023-08-30T04:47:49;0.50;;;0.50;;
51612;SDS011;37694;51.748;14.326;2023-08-30T04:50:15;0.82;;;0.68;;
51612;SDS011;37694;51.748;14.326;2023-08-30T04:52:42;1.95;;;0.60;;
51612;SDS011;37694;51.748;14.326;2023-08-30T04:55:08;1.10;;;0.45;;
51612;SDS011;37694;51.748;14.326;2023-08-30T04:57:34;1.33;;;0.70;;
51612;SDS011;37694;51.748;14.326;2023-08-30T04:59:59;0.88;;;0.70;;
51612;SDS011;37694;51.748;14.326;2023-08-30T05:02:29;0.77;;;0.77;;
51612;SDS011;37694;51.748;14.326;2023-08-30T05:04:55;1.92;;;0.82;;
51612;SDS011;37694;51.748;14.326;2023-08-30T05:07:21;4.93;;;0.77;;
51612;SDS011;37694;51.748;14.326;2023-08-30T05:09:46;6.22;;;0.93;;
51612;SDS011;37694;51.748;14.326;2023-08-30T05:12:12;5.47;;;1.10;;
51612;SDS011;37694;51.748;14.326;2023-08-30T05:14:38;7.13;;;0.90;;
51612;SDS011;37694;51.748;14.326;2023-08-30T05:17:03;9.55;;;1.38;;
51612;SDS011;37694;51.748;14.326;2023-08-30T05:19:29;12.27;;;1.33;;
51612;SDS011;37694;51.748;14.326;2023-08-30T05:21:55;9.27;;;1.13;;
51612;SDS011;37694;51.748;14.326;2023-08-30T05:24:21;20.88;;;1.48;;
51612;SDS011;37694;51.748;14.326;2023-08-30T05:26:47;27.60;;;2.85;;
51612;SDS011;37694;51.748;14.326;2023-08-30T05:29:14;37.33;;;2.85;;
51612;SDS011;37694;51.748;14.326;2023-08-30T05:31:40;33.22;;;2.67;;
51612;SDS011;37694;51.748;14.326;2023-08-30T05:34:06;49.67;;;6.35;;
51612;SDS011;37694;51.748;14.326;2023-08-30T05:36:32;58.88;;;8.13;;
51612;SDS011;37694;51.748;14.326;2023-08-30T05:38:58;51.13;;;4.63;;
51612;SDS011;37694;51.748;14.326;2023-08-30T05:41:23;50.42;;;4.80;;
51612;SDS011;37694;51.748;14.326;2023-08-30T05:43:49;62.65;;;6.22;;
51612;SDS011;37694;51.748;14.326;2023-08-30T05:46:16;38.78;;;5.43;;
51612;SDS011;37694;51.748;14.326;2023-08-30T05:48:42;40.25;;;5.45;;
51612;SDS011;37694;51.748;14.326;2023-08-30T05:51:08;50.30;;;7.63;;
51612;SDS011;37694;51.748;14.326;2023-08-30T05:53:33;38.70;;;5.88;;
51612;SDS011;37694;51.748;14.326;2023-08-30T05:55:59;31.52;;;5.38;;
51612;SDS011;37694;51.748;14.326;2023-08-30T05:58:25;30.38;;;5.32;;
51612;SDS011;37694;51.748;14.326;2023-08-30T06:00:50;38.45;;;5.72;;
51612;SDS011;37694;51.748;14.326;2023-08-30T06:03:16;31.75;;;6.85;;
51612;SDS011;37694;51.748;14.326;2023-08-30T06:05:42;41.45;;;5.85;;
51612;SDS011;37694;51.748;14.326;2023-08-30T06:08:08;42.17;;;6.68;;
51612;SDS011;37694;51.748;14.326;2023-08-30T06:10:34;39.63;;;5.65;;
51612;SDS011;37694;51.748;14.326;2023-08-30T06:13:01;30.77;;;5.40;;
51612;SDS011;37694;51.748;14.326;2023-08-30T06:15:27;34.83;;;4.53;;
51612;SDS011;37694;51.748;14.326;2023-08-30T06:17:53;37.70;;;6.30;;
51612;SDS011;37694;51.748;14.326;2023-08-30T06:20:19;20.90;;;4.93;;
51612;SDS011;37694;51.748;14.326;2023-08-30T06:22:45;36.25;;;4.85;;
51612;SDS011;37694;51.748;14.326;2023-08-30T06:25:11;24.17;;;4.15;;
51612;SDS011;37694;51.748;14.326;2023-08-30T06:27:41;18.20;;;4.80;;
51612;SDS011;37694;51.748;14.326;2023-08-30T06:30:10;22.33;;;3.65;;
51612;SDS011;37694;51.748;14.326;2023-08-30T06:32:36;35.90;;;5.13;;
51612;SDS011;37694;51.748;14.326;2023-08-30T06:35:02;27.17;;;6.03;;
51612;SDS011;37694;51.748;14.326;2023-08-30T06:37:29;31.10;;;4.30;;
51612;SDS011;37694;51.748;14.326;2023-08-30T06:39:55;24.50;;;4.75;;
51612;SDS011;37694;51.748;14.326;2023-08-30T06:42:20;25.23;;;4.03;;
51612;SDS011;37694;51.748;14.326;2023-08-30T06:44:46;15.65;;;4.18;;
51612;SDS011;37694;51.748;14.326;2023-08-30T06:47:12;14.93;;;4.65;;
51612;SDS011;37694;51.748;14.326;2023-08-30T06:49:37;12.80;;;4.07;;
51612;SDS011;37694;51.748;14.326;2023-08-30T06:52:03;22.65;;;3.88;;
51612;SDS011;37694;51.748;14.326;2023-08-30T06:54:33;16.85;;;3.78;;
51612;SDS011;37694;51.748;14.326;2023-08-30T06:56:59;13.95;;;4.00;;
51612;SDS011;37694;51.748;14.326;2023-08-30T06:59:28;24.58;;;5.60;;
51612;SDS011;37694;51.748;14.326;2023-08-30T07:01:55;25.67;;;4.00;;
51612;SDS011;37694;51.748;14.326;2023-08-30T07:04:20;16.13;;;4.05;;
51612;SDS011;37694;51.748;14.326;2023-08-30T07:06:46;15.50;;;3.65;;
51612;SDS011;37694;51.748;14.326;2023-08-30T07:09:12;12.82;;;3.78;;
51612;SDS011;37694;51.748;14.326;2023-08-30T07:11:38;11.30;;;4.22;;
51612;SDS011;37694;51.748;14.326;2023-08-30T07:14:03;10.95;;;3.58;;
51612;SDS011;37694;51.748;14.326;2023-08-30T07:16:30;12.75;;;4.35;;
51612;SDS011;37694;51.748;14.326;2023-08-30T07:18:57;17.52;;;3.90;;
51612;SDS011;37694;51.748;14.326;2023-08-30T07:21:24;9.50;;;3.65;;
51612;SDS011;37694;51.748;14.326;2023-08-30T07:23:50;9.48;;;3.35;;
51612;SDS011;37694;51.748;14.326;2023-08-30T07:26:15;6.97;;;2.75;;
51612;SDS011;37694;51.748;14.326;2023-08-30T07:28:41;10.63;;;3.28;;
51612;SDS011;37694;51.748;14.326;2023-08-30T07:31:07;10.48;;;3.65;;
51612;SDS011;37694;51.748;14.326;2023-08-30T07:33:32;13.10;;;3.25;;
51612;SDS011;37694;51.748;14.326;2023-08-30T07:35:58;12.95;;;3.30;;
51612;SDS011;37694;51.748;14.326;2023-08-30T07:38:24;13.27;;;3.47;;
51612;SDS011;37694;51.748;14.326;2023-08-30T07:40:50;12.18;;;3.10;;
51612;SDS011;37694;51.748;14.326;2023-08-30T07:43:15;11.43;;;2.90;;
51612;SDS011;37694;51.748;14.326;2023-08-30T07:45:41;9.48;;;3.15;;
51612;SDS011;37694;51.748;14.326;2023-08-30T07:48:07;9.38;;;3.20;;
51612;SDS011;37694;51.748;14.326;2023-08-30T07:50:32;8.30;;;2.95;;
51612;SDS011;37694;51.748;14.326;2023-08-30T07:52:58;9.23;;;2.88;;
51612;SDS011;37694;51.748;14.326;2023-08-30T07:55:24;6.15;;;2.88;;
51612;SDS011;37694;51.748;14.326;2023-08-30T07:57:50;14.88;;;3.00;;
51612;SDS011;37694;51.748;14.326;2023-08-30T08:00:15;10.38;;;2.83;;
51612;SDS011;37694;51.748;14.326;2023-08-30T08:02:41;9.27;;;2.97;;
51612;SDS011;37694;51.748;14.326;2023-08-30T08:05:07;10.55;;;3.45;;
51612;SDS011;37694;51.748;14.326;2023-08-30T08:07:33;6.53;;;2.67;;
51612;SDS011;37694;51.748;14.326;2023-08-30T08:09:59;9.55;;;3.20;;
51612;SDS011;37694;51.748;14.326;2023-08-30T08:12:25;5.15;;;2.50;;
51612;SDS011;37694;51.748;14.326;2023-08-30T08:14:52;9.13;;;3.28;;
51612;SDS011;37694;51.748;14.326;2023-08-30T08:17:17;5.75;;;2.72;;
51612;SDS011;37694;51.748;14.326;2023-08-30T08:19:43;6.53;;;2.75;;
51612;SDS011;37694;51.748;14.326;2023-08-30T08:22:09;5.72;;;2.50;;
51612;SDS011;37694;51.748;14.326;2023-08-30T08:24:35;4.03;;;2.20;;
51612;SDS011;37694;51.748;14.326;2023-08-30T08:27:01;10.43;;;2.85;;
51612;SDS011;37694;51.748;14.326;2023-08-30T08:29:27;6.43;;;2.97;;
51612;SDS011;37694;51.748;14.326;2023-08-30T08:31:55;6.78;;;3.33;;
51612;SDS011;37694;51.748;14.326;2023-08-30T08:34:21;7.63;;;2.42;;
51612;SDS011;37694;51.748;14.326;2023-08-30T08:36:47;5.38;;;2.53;;
51612;SDS011;37694;51.748;14.326;2023-08-30T08:39:12;8.38;;;2.42;;
51612;SDS011;37694;51.748;14.326;2023-08-30T08:41:42;5.90;;;2.28;;
51612;SDS011;37694;51.748;14.326;2023-08-30T08:44:09;4.72;;;2.38;;
51612;SDS011;37694;51.748;14.326;2023-08-30T08:46:37;7.60;;;2.58;;
51612;SDS011;37694;51.748;14.326;2023-08-30T08:49:14;4.30;;;2.35;;
51612;SDS011;37694;51.748;14.326;2023-08-30T08:51:41;5.38;;;2.55;;
51612;SDS011;37694;51.748;14.326;2023-08-30T08:54:10;2.53;;;2.08;;
51612;SDS011;37694;51.748;14.326;2023-08-30T08:56:37;3.33;;;1.95;;
51612;SDS011;37694;51.748;14.326;2023-08-30T08:59:03;5.55;;;2.78;;
51612;SDS011;37694;51.748;14.326;2023-08-30T09:01:33;6.95;;;2.30;;
51612;SDS011;37694;51.748;14.326;2023-08-30T09:04:03;3.95;;;2.08;;
51612;SDS011;37694;51.748;14.326;2023-08-30T09:06:34;3.13;;;1.77;;
51612;SDS011;37694;51.748;14.326;2023-08-30T09:09:00;5.88;;;2.40;;
51612;SDS011;37694;51.748;14.326;2023-08-30T09:11:29;3.22;;;2.10;;
51612;SDS011;37694;51.748;14.326;2023-08-30T09:13:54;4.28;;;1.98;;
51612;SDS011;37694;51.748;14.326;2023-08-30T09:16:20;4.38;;;2.13;;
51612;SDS011;37694;51.748;14.326;2023-08-30T09:18:56;5.25;;;2.20;;
51612;SDS011;37694;51.748;14.326;2023-08-30T09:21:23;2.55;;;1.90;;
51612;SDS011;37694;51.748;14.326;2023-08-30T09:23:59;2.78;;;2.00;;
51612;SDS011;37694;51.748;14.326;2023-08-30T09:26:29;4.22;;;1.98;;
51612;SDS011;37694;51.748;14.326;2023-08-30T09:29:01;5.63;;;2.53;;
51612;SDS011;37694;51.748;14.326;2023-08-30T09:31:34;3.38;;;2.05;;
51612;SDS011;37694;51.748;14.326;2023-08-30T09:34:01;2.42;;;1.90;;
51612;SDS011;37694;51.748;14.326;2023-08-30T09:36:34;4.88;;;2.63;;
51612;SDS011;37694;51.748;14.326;2023-08-30T09:39:04;5.05;;;2.03;;
51612;SDS011;37694;51.748;14.326;2023-08-30T09:41:32;3.65;;;2.13;;
51612;SDS011;37694;51.748;14.326;2023-08-30T09:43:58;5.10;;;2.15;;
51612;SDS011;37694;51.748;14.326;2023-08-30T09:46:25;3.50;;;2.00;;
51612;SDS011;37694;51.748;14.326;2023-08-30T09:48:51;2.97;;;2.17;;
51612;SDS011;37694;51.748;14.326;2023-08-30T09:51:19;4.20;;;2.17;;
51612;SDS011;37694;51.748;14.326;2023-08-30T09:53:49;3.38;;;1.60;;
51612;SDS011;37694;51.748;14.326;2023-08-30T09:56:19;2.70;;;1.60;;
51612;SDS011;37694;51.748;14.326;2023-08-30T09:58:47;4.22;;;2.42;;
51612;SDS011;37694;51.748;14.326;2023-08-30T10:01:14;3.67;;;2.08;;
51612;SDS011;37694;51.748;14.326;2023-08-30T10:03:40;4.22;;;2.35;;
51612;SDS011;37694;51.748;14.326;2023-08-30T10:06:07;3.38;;;2.15;;
51612;SDS011;37694;51.748;14.326;2023-08-30T10:08:33;2.78;;;1.55;;
51612;SDS011;37694;51.748;14.326;2023-08-30T10:11:01;2.70;;;1.60;;
51612;SDS011;37694;51.748;14.326;2023-08-30T10:13:29;5.53;;;2.05;;
51612;SDS011;37694;51.748;14.326;2023-08-30T10:15:58;3.20;;;1.73;;
51612;SDS011;37694;51.748;14.326;2023-08-30T10:18:28;2.87;;;2.00;;
51612;SDS011;37694;51.748;14.326;2023-08-30T10:20:57;2.40;;;1.73;;
51612;SDS011;37694;51.748;14.326;2023-08-30T10:23:25;1.73;;;1.60;;
51612;SDS011;37694;51.748;14.326;2023-08-30T10:25:52;2.67;;;1.88;;
51612;SDS011;37694;51.748;14.326;2023-08-30T10:28:19;4.18;;;1.90;;
51612;SDS011;37694;51.748;14.326;2023-08-30T10:30:48;3.45;;;1.80;;
51612;SDS011;37694;51.748;14.326;2023-08-30T10:33:14;3.72;;;2.05;;
51612;SDS011;37694;51.748;14.326;2023-08-30T10:35:48;1.80;;;1.70;;
51612;SDS011;37694;51.748;14.326;2023-08-30T10:38:25;1.45;;;1.30;;
51612;SDS011;37694;51.748;14.326;2023-08-30T10:40:52;3.53;;;2.08;;
51612;SDS011;37694;51.748;14.326;2023-08-30T10:43:27;1.88;;;1.40;;
51612;SDS011;37694;51.748;14.326;2023-08-30T10:46:02;2.42;;;1.92;;
51612;SDS011;37694;51.748;14.326;2023-08-30T10:51:01;3.72;;;1.60;;
51612;SDS011;37694;51.748;14.326;2023-08-30T10:53:29;1.73;;;1.50;;
51612;SDS011;37694;51.748;14.326;2023-08-30T10:56:11;4.47;;;2.00;;
51612;SDS011;37694;51.748;14.326;2023-08-30T10:58:43;5.55;;;2.30;;
51612;SDS011;37694;51.748;14.326;2023-08-30T11:01:09;13.60;;;2.22;;
51612;SDS011;37694;51.748;14.326;2023-08-30T11:03:39;3.70;;;1.92;;
51612;SDS011;37694;51.748;14.326;2023-08-30T11:06:06;6.50;;;2.30;;
51612;SDS011;37694;51.748;14.326;2023-08-30T11:08:32;3.65;;;2.00;;
51612;SDS011;37694;51.748;14.326;2023-08-30T11:11:02;8.23;;;1.80;;
51612;SDS011;37694;51.748;14.326;2023-08-30T11:13:29;11.43;;;1.85;;
51612;SDS011;37694;51.748;14.326;2023-08-30T11:15:59;8.05;;;2.65;;
51612;SDS011;37694;51.748;14.326;2023-08-30T11:18:38;9.50;;;2.63;;
51612;SDS011;37694;51.748;14.326;2023-08-30T11:21:05;3.67;;;2.00;;
51612;SDS011;37694;51.748;14.326;2023-08-30T11:23:31;7.75;;;2.38;;
51612;SDS011;37694;51.748;14.326;2023-08-30T11:25:57;13.05;;;2.47;;
51612;SDS011;37694;51.748;14.326;2023-08-30T11:28:24;10.88;;;2.20;;
51612;SDS011;37694;51.748;14.326;2023-08-30T11:30:53;10.20;;;2.40;;
51612;SDS011;37694;51.748;14.326;2023-08-30T11:33:19;11.50;;;2.47;;
51612;SDS011;37694;51.748;14.326;2023-08-30T11:35:49;5.20;;;2.20;;
51612;SDS011;37694;51.748;14.326;2023-08-30T11:38:17;7.82;;;2.00;;
51612;SDS011;37694;51.748;14.326;2023-08-30T11:40:43;7.68;;;1.70;;
51612;SDS011;37694;51.748;14.326;2023-08-30T11:43:09;9.30;;;2.33;;
51612;SDS011;37694;51.748;14.326;2023-08-30T11:45:35;3.22;;;1.67;;
51612;SDS011;37694;51.748;14.326;2023-08-30T11:48:01;7.68;;;2.15;;
51612;SDS011;37694;51.748;14.326;2023-08-30T11:50:27;6.97;;;2.03;;
51612;SDS011;37694;51.748;14.326;2023-08-30T11:52:54;5.40;;;2.03;;
51612;SDS011;37694;51.748;14.326;2023-08-30T11:55:21;7.55;;;1.70;;
51612;SDS011;37694;51.748;14.326;2023-08-30T11:57:50;6.57;;;2.08;;
51612;SDS011;37694;51.748;14.326;2023-08-30T12:00:18;11.90;;;2.60;;
51612;SDS011;37694;51.748;14.326;2023-08-30T12:02:47;4.78;;;1.90;;
51612;SDS011;37694;51.748;14.326;2023-08-30T12:05:13;4.63;;;2.15;;
51612;SDS011;37694;51.748;14.326;2023-08-30T12:07:39;4.43;;;2.10;;
51612;SDS011;37694;51.748;14.326;2023-08-30T12:10:06;3.05;;;1.80;;
51612;SDS011;37694;51.748;14.326;2023-08-30T12:12:35;4.82;;;1.90;;
51612;SDS011;37694;51.748;14.326;2023-08-30T12:15:07;4.45;;;1.90;;
51612;SDS011;37694;51.748;14.326;2023-08-30T12:17:36;2.33;;;1.70;;
51612;SDS011;37694;51.748;14.326;2023-08-30T12:20:02;5.63;;;1.70;;
51612;SDS011;37694;51.748;14.326;2023-08-30T12:22:40;2.97;;;1.75;;
51612;SDS011;37694;51.748;14.326;2023-08-30T12:25:19;2.30;;;1.58;;
51612;SDS011;37694;51.748;14.326;2023-08-30T12:27:46;2.60;;;1.60;;
51612;SDS011;37694;51.748;14.326;2023-08-30T12:30:13;7.25;;;1.90;;
51612;SDS011;37694;51.748;14.326;2023-08-30T12:32:40;4.32;;;1.60;;
51612;SDS011;37694;51.748;14.326;2023-08-30T12:35:06;4.28;;;1.83;;
51612;SDS011;37694;51.748;14.326;2023-08-30T12:37:32;4.50;;;1.80;;
51612;SDS011;37694;51.748;14.326;2023-08-30T12:39:57;5.70;;;2.05;;
51612;SDS011;37694;51.748;14.326;2023-08-30T12:42:23;3.75;;;1.95;;
51612;SDS011;37694;51.748;14.326;2023-08-30T12:44:49;2.63;;;1.60;;
51612;SDS011;37694;51.748;14.326;2023-08-30T12:47:14;2.78;;;1.40;;
51612;SDS011;37694;51.748;14.326;2023-08-30T12:49:40;1.77;;;1.42;;
51612;SDS011;37694;51.748;14.326;2023-08-30T12:52:06;3.67;;;1.50;;
51612;SDS011;37694;51.748;14.326;2023-08-30T12:54:32;3.05;;;1.70;;
51612;SDS011;37694;51.748;14.326;2023-08-30T12:56:57;3.83;;;1.65;;
51612;SDS011;37694;51.748;14.326;2023-08-30T12:59:23;5.28;;;1.80;;
51612;SDS011;37694;51.748;14.326;2023-08-30T13:01:49;4.07;;;1.98;;
51612;SDS011;37694;51.748;14.326;2023-08-30T13:04:15;3.25;;;1.67;;
51612;SDS011;37694;51.748;14.326;2023-08-30T13:06:40;1.30;;;1.20;;
51612;SDS011;37694;51.748;14.326;2023-08-30T13:09:06;5.15;;;1.50;;
51612;SDS011;37694;51.748;14.326;2023-08-30T13:11:32;2.55;;;1.80;;
51612;SDS011;37694;51.748;14.326;2023-08-30T13:13:58;6.30;;;1.95;;
51612;SDS011;37694;51.748;14.326;2023-08-30T13:16:24;1.60;;;1.40;;
51612;SDS011;37694;51.748;14.326;2023-08-30T13:18:50;1.52;;;1.42;;
51612;SDS011;37694;51.748;14.326;2023-08-30T13:21:15;3.38;;;1.40;;
51612;SDS011;37694;51.748;14.326;2023-08-30T13:23:41;1.85;;;1.42;;
51612;SDS011;37694;51.748;14.326;2023-08-30T13:26:07;2.58;;;1.40;;
51612;SDS011;37694;51.748;14.326;2023-08-30T13:28:32;2.63;;;1.52;;
51612;SDS011;37694;51.748;14.326;2023-08-30T13:30:59;4.95;;;2.08;;
51612;SDS011;37694;51.748;14.326;2023-08-30T13:33:25;2.17;;;1.52;;
51612;SDS011;37694;51.748;14.326;2023-08-30T13:35:52;3.97;;;1.70;;
51612;SDS011;37694;51.748;14.326;2023-08-30T13:38:18;1.83;;;1.45;;
51612;SDS011;37694;51.748;14.326;2023-08-30T13:40:43;1.92;;;1.60;;
51612;SDS011;37694;51.748;14.326;2023-08-30T13:43:10;2.05;;;1.50;;
51612;SDS011;37694;51.748;14.326;2023-08-30T13:45:35;1.58;;;1.27;;
51612;SDS011;37694;51.748;14.326;2023-08-30T13:48:01;2.05;;;1.50;;
51612;SDS011;37694;51.748;14.326;2023-08-30T13:50:27;1.63;;;1.52;;
51612;SDS011;37694;51.748;14.326;2023-08-30T13:52:58;2.55;;;1.55;;
51612;SDS011;37694;51.748;14.326;2023-08-30T13:55:24;5.07;;;1.83;;
51612;SDS011;37694;51.748;14.326;2023-08-30T13:57:50;1.77;;;1.42;;
51612;SDS011;37694;51.748;14.326;2023-08-30T14:00:16;3.20;;;1.70;;
51612;SDS011;37694;51.748;14.326;2023-08-30T14:02:42;3.25;;;1.95;;
51612;SDS011;37694;51.748;14.326;2023-08-30T14:05:08;2.33;;;1.40;;
51612;SDS011;37694;51.748;14.326;2023-08-30T14:07:34;1.88;;;1.65;;
51612;SDS011;37694;51.748;14.326;2023-08-30T14:09:59;1.77;;;1.40;;
51612;SDS011;37694;51.748;14.326;2023-08-30T14:12:25;5.60;;;1.80;;
51612;SDS011;37694;51.748;14.326;2023-08-30T14:14:51;1.98;;;1.52;;
51612;SDS011;37694;51.748;14.326;2023-08-30T14:17:18;2.60;;;1.45;;
51612;SDS011;37694;51.748;14.326;2023-08-30T14:19:43;2.28;;;1.52;;
51612;SDS011;37694;51.748;14.326;2023-08-30T14:22:09;3.72;;;1.48;;
51612;SDS011;37694;51.748;14.326;2023-08-30T14:24:35;3.22;;;1.58;;
51612;SDS011;37694;51.748;14.326;2023-08-30T14:27:01;6.88;;;1.60;;
51612;SDS011;37694;51.748;14.326;2023-08-30T14:29:28;15.77;;;3.05;;
51612;SDS011;37694;51.748;14.326;2023-08-30T14:31:53;5.32;;;1.55;;
51612;SDS011;37694;51.748;14.326;2023-08-30T14:34:22;4.25;;;1.70;;
51612;SDS011;37694;51.748;14.326;2023-08-30T14:36:48;12.55;;;2.08;;
51612;SDS011;37694;51.748;14.326;2023-08-30T14:39:14;8.82;;;2.58;;